sensor_id;sensor_type;location;lat;lon;timestamp;pressure;altitude;pressure_sealevel;temperature;humidity
71770;BME280;66386;52.122;5.420;2023-04-07T00:00:27;101567.91;;;7.66;97.75
71770;BME280;66386;52.122;5.420;2023-04-07T00:02:53;101570.50;;;7.64;97.52
71770;BME280;66386;52.122;5.420;2023-04-07T00:05:20;101579.00;;;7.65;97.67
71770;BME280;66386;52.122;5.420;2023-04-07T00:07:46;101577.34;;;7.64;97.43
71770;BME280;66386;52.122;5.420;2023-04-07T00:10:23;101581.59;;;7.63;97.44
71770;BME280;66386;52.122;5.420;2023-04-07T00:12:50;101580.78;;;7.61;97.54
71770;BME280;66386;52.122;5.420;2023-04-07T00:15:16;101570.56;;;7.60;97.40
71770;BME280;66386;52.122;5.420;2023-04-07T00:17:43;101574.81;;;7.59;97.20
71770;BME280;66386;52.122;5.420;2023-04-07T00:20:10;101579.13;;;7.57;97.34
71770;BME280;66386;52.122;5.420;2023-04-07T00:22:36;101578.28;;;7.55;97.43
71770;BME280;66386;52.122;5.420;2023-04-07T00:25:03;101580.00;;;7.55;97.56
71770;BME280;66386;52.122;5.420;2023-04-07T00:27:30;101578.34;;;7.52;97.39
71770;BME280;66386;52.122;5.420;2023-04-07T00:29:56;101578.34;;;7.52;97.49
71770;BME280;66386;52.122;5.420;2023-04-07T00:32:22;101590.25;;;7.51;97.25
71770;BME280;66386;52.122;5.420;2023-04-07T00:34:49;101582.59;;;7.51;97.60
71770;BME280;66386;52.122;5.420;2023-04-07T00:37:15;101584.34;;;7.49;97.39
71770;BME280;66386;52.122;5.420;2023-04-07T00:39:42;101592.84;;;7.48;97.13
71770;BME280;66386;52.122;5.420;2023-04-07T00:42:09;101583.47;;;7.47;97.34
71770;BME280;66386;52.122;5.420;2023-04-07T00:44:36;101580.94;;;7.47;97.12
71770;BME280;66386;52.122;5.420;2023-04-07T00:47:02;101582.63;;;7.48;97.20
71770;BME280;66386;52.122;5.420;2023-04-07T00:49:29;101587.75;;;7.47;97.10
71770;BME280;66386;52.122;5.420;2023-04-07T00:51:57;101583.50;;;7.46;96.96
71770;BME280;66386;52.122;5.420;2023-04-07T00:54:23;101576.75;;;7.43;96.94
71770;BME280;66386;52.122;5.420;2023-04-07T00:56:51;101585.25;;;7.44;96.95
71770;BME280;66386;52.122;5.420;2023-04-07T00:59:18;101584.41;;;7.45;96.81
71770;BME280;66386;52.122;5.420;2023-04-07T01:01:52;101584.38;;;7.46;96.95
71770;BME280;66386;52.122;5.420;2023-04-07T01:04:27;101582.66;;;7.45;96.90
71770;BME280;66386;52.122;5.420;2023-04-07T01:07:05;101582.66;;;7.45;96.91
71770;BME280;66386;52.122;5.420;2023-04-07T01:09:37;101577.56;;;7.45;96.87
71770;BME280;66386;52.122;5.420;2023-04-07T01:15:07;101584.41;;;7.43;96.75
71770;BME280;66386;52.122;5.420;2023-04-07T01:17:36;101585.25;;;7.44;96.96
71770;BME280;66386;52.122;5.420;2023-04-07T01:20:06;101584.41;;;7.45;96.93
71770;BME280;66386;52.122;5.420;2023-04-07T01:22:46;101579.28;;;7.45;96.81
71770;BME280;66386;52.122;5.420;2023-04-07T01:25:52;101583.53;;;7.44;96.79
71770;BME280;66386;52.122;5.420;2023-04-07T01:31:11;101586.09;;;7.44;96.75
71770;BME280;66386;52.122;5.420;2023-04-07T01:33:38;101586.09;;;7.43;96.65
71770;BME280;66386;52.122;5.420;2023-04-07T01:36:08;101596.31;;;7.44;96.79
71770;BME280;66386;52.122;5.420;2023-04-07T01:38:36;101588.66;;;7.43;96.88
71770;BME280;66386;52.122;5.420;2023-04-07T01:41:03;101588.66;;;7.43;96.64
71770;BME280;66386;52.122;5.420;2023-04-07T01:43:31;101588.63;;;7.44;96.80
71770;BME280;66386;52.122;5.420;2023-04-07T01:45:58;101581.84;;;7.45;96.85
71770;BME280;66386;52.122;5.420;2023-04-07T01:48:26;101577.56;;;7.44;96.72
71770;BME280;66386;52.122;5.420;2023-04-07T01:50:53;101585.25;;;7.44;96.68
71770;BME280;66386;52.122;5.420;2023-04-07T01:53:22;101588.63;;;7.44;96.86
71770;BME280;66386;52.122;5.420;2023-04-07T01:55:51;101586.09;;;7.43;96.87
71770;BME280;66386;52.122;5.420;2023-04-07T01:58:18;101583.53;;;7.43;96.97
71770;BME280;66386;52.122;5.420;2023-04-07T02:00:45;101582.72;;;7.42;96.86
71770;BME280;66386;52.122;5.420;2023-04-07T02:03:15;101583.53;;;7.43;96.55
71770;BME280;66386;52.122;5.420;2023-04-07T02:05:48;101581.00;;;7.41;96.87
71770;BME280;66386;52.122;5.420;2023-04-07T02:08:16;101581.00;;;7.41;96.92
71770;BME280;66386;52.122;5.420;2023-04-07T02:10:46;101582.72;;;7.42;96.74
71770;BME280;66386;52.122;5.420;2023-04-07T02:13:15;101587.81;;;7.42;96.71
71770;BME280;66386;52.122;5.420;2023-04-07T02:15:44;101581.00;;;7.43;96.85
71770;BME280;66386;52.122;5.420;2023-04-07T02:18:13;101587.81;;;7.42;96.62
71770;BME280;66386;52.122;5.420;2023-04-07T02:20:42;101590.38;;;7.42;96.86
71770;BME280;66386;52.122;5.420;2023-04-07T02:23:10;101589.53;;;7.42;96.66
71770;BME280;66386;52.122;5.420;2023-04-07T02:25:36;101588.69;;;7.41;96.63
71770;BME280;66386;52.122;5.420;2023-04-07T02:28:04;101591.22;;;7.41;96.85
71770;BME280;66386;52.122;5.420;2023-04-07T02:30:32;101592.97;;;7.41;96.88
71770;BME280;66386;52.122;5.420;2023-04-07T02:32:59;101590.41;;;7.41;96.76
71770;BME280;66386;52.122;5.420;2023-04-07T02:35:25;101595.50;;;7.42;96.88
71770;BME280;66386;52.122;5.420;2023-04-07T02:37:52;101590.38;;;7.44;96.83
71770;BME280;66386;52.122;5.420;2023-04-07T02:40:19;101587.78;;;7.45;96.93
71770;BME280;66386;52.122;5.420;2023-04-07T02:42:45;101588.63;;;7.46;96.84
71770;BME280;66386;52.122;5.420;2023-04-07T02:45:12;101584.41;;;7.45;96.92
71770;BME280;66386;52.122;5.420;2023-04-07T02:47:39;101590.38;;;7.44;96.92
71770;BME280;66386;52.122;5.420;2023-04-07T02:50:06;101586.09;;;7.44;96.63
71770;BME280;66386;52.122;5.420;2023-04-07T02:52:32;101595.47;;;7.44;96.81
71770;BME280;66386;52.122;5.420;2023-04-07T02:54:59;101594.59;;;7.46;96.74
71770;BME280;66386;52.122;5.420;2023-04-07T02:57:26;101596.31;;;7.44;96.75
71770;BME280;66386;52.122;5.420;2023-04-07T02:59:53;101596.28;;;7.46;96.75
71770;BME280;66386;52.122;5.420;2023-04-07T03:02:21;101598.84;;;7.46;96.70
71770;BME280;66386;52.122;5.420;2023-04-07T03:04:50;101592.06;;;7.45;96.54
71770;BME280;66386;52.122;5.420;2023-04-07T03:07:18;101603.97;;;7.46;96.74
71770;BME280;66386;52.122;5.420;2023-04-07T03:09:44;101600.56;;;7.45;96.59
71770;BME280;66386;52.122;5.420;2023-04-07T03:12:11;101598.00;;;7.45;96.67
71770;BME280;66386;52.122;5.420;2023-04-07T03:14:38;101593.75;;;7.44;96.58
71770;BME280;66386;52.122;5.420;2023-04-07T03:17:04;101590.38;;;7.44;96.74
71770;BME280;66386;52.122;5.420;2023-04-07T03:19:31;101597.19;;;7.43;96.73
71770;BME280;66386;52.122;5.420;2023-04-07T03:21:57;101601.44;;;7.43;96.45
71770;BME280;66386;52.122;5.420;2023-04-07T03:24:24;101601.47;;;7.41;96.66
71770;BME280;66386;52.122;5.420;2023-04-07T03:26:50;101596.34;;;7.41;96.87
71770;BME280;66386;52.122;5.420;2023-04-07T03:29:18;101598.09;;;7.39;96.71
71770;BME280;66386;52.122;5.420;2023-04-07T03:31:44;101592.97;;;7.39;96.78
71770;BME280;66386;52.122;5.420;2023-04-07T03:34:12;101599.81;;;7.37;96.70
71770;BME280;66386;52.122;5.420;2023-04-07T03:36:38;101594.66;;;7.39;96.83
71770;BME280;66386;52.122;5.420;2023-04-07T03:39:04;101602.34;;;7.39;96.87
71770;BME280;66386;52.122;5.420;2023-04-07T03:41:31;101602.34;;;7.39;96.96
71770;BME280;66386;52.122;5.420;2023-04-07T03:43:58;101607.44;;;7.39;96.83
71770;BME280;66386;52.122;5.420;2023-04-07T03:46:25;101604.88;;;7.40;96.82
71770;BME280;66386;52.122;5.420;2023-04-07T03:48:52;101600.66;;;7.39;96.72
71770;BME280;66386;52.122;5.420;2023-04-07T03:51:19;101604.03;;;7.41;96.83
71770;BME280;66386;52.122;5.420;2023-04-07T03:53:45;101596.34;;;7.41;96.83
71770;BME280;66386;52.122;5.420;2023-04-07T03:56:12;101598.06;;;7.42;96.73
71770;BME280;66386;52.122;5.420;2023-04-07T03:58:39;101602.34;;;7.42;96.90
71770;BME280;66386;52.122;5.420;2023-04-07T04:01:07;101603.19;;;7.41;96.68
71770;BME280;66386;52.122;5.420;2023-04-07T04:03:34;101600.66;;;7.39;96.61
71770;BME280;66386;52.122;5.420;2023-04-07T04:06:01;101601.50;;;7.38;96.63
71770;BME280;66386;52.122;5.420;2023-04-07T04:08:28;101604.09;;;7.37;96.82
71770;BME280;66386;52.122;5.420;2023-04-07T04:10:54;101597.25;;;7.37;96.73
71770;BME280;66386;52.122;5.420;2023-04-07T04:13:21;101604.06;;;7.38;96.70
71770;BME280;66386;52.122;5.420;2023-04-07T04:15:47;101605.75;;;7.39;96.84
71770;BME280;66386;52.122;5.420;2023-04-07T04:18:14;101600.69;;;7.36;96.58
71770;BME280;66386;52.122;5.420;2023-04-07T04:20:41;101614.31;;;7.37;96.93
71770;BME280;66386;52.122;5.420;2023-04-07T04:23:08;101611.75;;;7.37;96.61
71770;BME280;66386;52.122;5.420;2023-04-07T04:25:34;101601.53;;;7.35;96.97
71770;BME280;66386;52.122;5.420;2023-04-07T04:28:01;101607.50;;;7.36;96.88
71770;BME280;66386;52.122;5.420;2023-04-07T04:30:27;101616.03;;;7.36;96.87
71770;BME280;66386;52.122;5.420;2023-04-07T04:32:54;101621.16;;;7.36;96.68
71770;BME280;66386;52.122;5.420;2023-04-07T04:35:20;101627.06;;;7.38;96.72
71770;BME280;66386;52.122;5.420;2023-04-07T04:37:47;101628.81;;;7.38;96.83
71770;BME280;66386;52.122;5.420;2023-04-07T04:40:13;101626.25;;;7.38;96.79
71770;BME280;66386;52.122;5.420;2023-04-07T04:42:40;101634.75;;;7.38;96.74
71770;BME280;66386;52.122;5.420;2023-04-07T04:45:07;101637.31;;;7.38;96.56
71770;BME280;66386;52.122;5.420;2023-04-07T04:47:33;101637.31;;;7.38;96.63
71770;BME280;66386;52.122;5.420;2023-04-07T04:50:00;101642.41;;;7.40;96.63
71770;BME280;66386;52.122;5.420;2023-04-07T04:52:26;101641.56;;;7.39;96.41
71770;BME280;66386;52.122;5.420;2023-04-07T04:54:56;101651.81;;;7.39;96.71
71770;BME280;66386;52.122;5.420;2023-04-07T04:57:22;101648.38;;;7.39;96.69
71770;BME280;66386;52.122;5.420;2023-04-07T04:59:48;101650.09;;;7.38;96.55
71770;BME280;66386;52.122;5.420;2023-04-07T05:02:15;101650.94;;;7.39;96.52
71770;BME280;66386;52.122;5.420;2023-04-07T05:04:42;101651.81;;;7.38;96.46
71770;BME280;66386;52.122;5.420;2023-04-07T05:07:09;101647.56;;;7.37;96.60
71770;BME280;66386;52.122;5.420;2023-04-07T05:09:35;101656.03;;;7.39;96.62
71770;BME280;66386;52.122;5.420;2023-04-07T05:12:02;101653.50;;;7.39;96.58
71770;BME280;66386;52.122;5.420;2023-04-07T05:14:28;101656.91;;;7.39;96.42
71770;BME280;66386;52.122;5.420;2023-04-07T05:16:54;101657.75;;;7.40;96.08
71770;BME280;66386;52.122;5.420;2023-04-07T05:19:21;101664.59;;;7.39;96.16
71770;BME280;66386;52.122;5.420;2023-04-07T05:21:47;101660.28;;;7.41;95.99
71770;BME280;66386;52.122;5.420;2023-04-07T05:24:14;101657.75;;;7.40;95.77
71770;BME280;66386;52.122;5.420;2023-04-07T05:26:40;101662.00;;;7.41;95.79
71770;BME280;66386;52.122;5.420;2023-04-07T05:29:07;101662.88;;;7.40;95.83
71770;BME280;66386;52.122;5.420;2023-04-07T05:31:33;101663.72;;;7.39;95.82
71770;BME280;66386;52.122;5.420;2023-04-07T05:34:02;101667.16;;;7.39;95.70
71770;BME280;66386;52.122;5.420;2023-04-07T05:36:29;101662.03;;;7.39;95.84
71770;BME280;66386;52.122;5.420;2023-04-07T05:38:56;101674.84;;;7.38;95.70
71770;BME280;66386;52.122;5.420;2023-04-07T05:41:23;101670.53;;;7.40;95.98
71770;BME280;66386;52.122;5.420;2023-04-07T05:43:49;101672.25;;;7.41;95.84
71770;BME280;66386;52.122;5.420;2023-04-07T05:46:16;101666.25;;;7.40;96.11
71770;BME280;66386;52.122;5.420;2023-04-07T05:48:43;101666.28;;;7.42;95.97
71770;BME280;66386;52.122;5.420;2023-04-07T05:51:09;101676.50;;;7.42;96.18
71770;BME280;66386;52.122;5.420;2023-04-07T05:53:35;101674.75;;;7.44;96.09
71770;BME280;66386;52.122;5.420;2023-04-07T05:56:02;101682.44;;;7.44;95.94
71770;BME280;66386;52.122;5.420;2023-04-07T05:58:28;101677.31;;;7.44;96.10
71770;BME280;66386;52.122;5.420;2023-04-07T06:00:55;101679.03;;;7.43;96.24
71770;BME280;66386;52.122;5.420;2023-04-07T06:03:22;101681.63;;;7.42;96.16
71770;BME280;66386;52.122;5.420;2023-04-07T06:05:49;101685.00;;;7.42;96.21
71770;BME280;66386;52.122;5.420;2023-04-07T06:08:15;101688.41;;;7.41;96.28
71770;BME280;66386;52.122;5.420;2023-04-07T06:10:42;101697.81;;;7.41;96.32
71770;BME280;66386;52.122;5.420;2023-04-07T06:13:09;101697.81;;;7.41;96.23
71770;BME280;66386;52.122;5.420;2023-04-07T06:15:36;101696.06;;;7.43;96.24
71770;BME280;66386;52.122;5.420;2023-04-07T06:18:02;101696.09;;;7.41;96.26
71770;BME280;66386;52.122;5.420;2023-04-07T06:20:28;101701.22;;;7.41;96.50
71770;BME280;66386;52.122;5.420;2023-04-07T06:22:55;101694.41;;;7.42;96.31
71770;BME280;66386;52.122;5.420;2023-04-07T06:25:21;101696.94;;;7.43;96.37
71770;BME280;66386;52.122;5.420;2023-04-07T06:27:49;101710.53;;;7.47;96.39
71770;BME280;66386;52.122;5.420;2023-04-07T06:30:15;101704.56;;;7.48;96.56
71770;BME280;66386;52.122;5.420;2023-04-07T06:32:42;101715.63;;;7.48;96.33
71770;BME280;66386;52.122;5.420;2023-04-07T06:35:08;101708.81;;;7.49;96.48
71770;BME280;66386;52.122;5.420;2023-04-07T06:37:35;101713.03;;;7.53;96.40
71770;BME280;66386;52.122;5.420;2023-04-07T06:40:01;101715.56;;;7.55;96.51
71770;BME280;66386;52.122;5.420;2023-04-07T06:42:28;101721.56;;;7.54;96.26
71770;BME280;66386;52.122;5.420;2023-04-07T06:44:54;101706.19;;;7.57;96.57
71770;BME280;66386;52.122;5.420;2023-04-07T06:47:21;101715.53;;;7.61;96.32
71770;BME280;66386;52.122;5.420;2023-04-07T06:49:47;101711.22;;;7.63;96.08
71770;BME280;66386;52.122;5.420;2023-04-07T06:52:14;101719.72;;;7.66;96.47
71770;BME280;66386;52.122;5.420;2023-04-07T06:54:40;101723.94;;;7.71;96.45
71770;BME280;66386;52.122;5.420;2023-04-07T06:57:08;101730.69;;;7.78;96.33
71770;BME280;66386;52.122;5.420;2023-04-07T06:59:37;101734.06;;;7.83;96.29
71770;BME280;66386;52.122;5.420;2023-04-07T07:02:04;101728.94;;;7.83;96.28
71770;BME280;66386;52.122;5.420;2023-04-07T07:04:33;101729.81;;;7.80;96.26
71770;BME280;66386;52.122;5.420;2023-04-07T07:07:00;101739.19;;;7.83;96.07
71770;BME280;66386;52.122;5.420;2023-04-07T07:09:26;101736.56;;;7.86;96.12
71770;BME280;66386;52.122;5.420;2023-04-07T07:11:53;101730.56;;;7.90;96.08
71770;BME280;66386;52.122;5.420;2023-04-07T07:14:19;101740.72;;;7.96;96.08
71770;BME280;66386;52.122;5.420;2023-04-07T07:16:45;101737.25;;;8.02;96.15
71770;BME280;66386;52.122;5.420;2023-04-07T07:19:15;101737.09;;;8.13;95.95
71770;BME280;66386;52.122;5.420;2023-04-07T07:21:42;101737.03;;;8.22;95.84
71770;BME280;66386;52.122;5.420;2023-04-07T07:24:08;101740.31;;;8.30;95.93
71770;BME280;66386;52.122;5.420;2023-04-07T07:26:34;101752.28;;;8.30;95.76
71770;BME280;66386;52.122;5.420;2023-04-07T07:29:01;101750.66;;;8.23;95.61
71770;BME280;66386;52.122;5.420;2023-04-07T07:31:27;101755.00;;;8.16;95.46
71770;BME280;66386;52.122;5.420;2023-04-07T07:33:54;101758.41;;;8.18;95.37
71770;BME280;66386;52.122;5.420;2023-04-07T07:36:20;101757.50;;;8.22;95.36
71770;BME280;66386;52.122;5.420;2023-04-07T07:38:49;101764.25;;;8.26;95.27
71770;BME280;66386;52.122;5.420;2023-04-07T07:41:16;101762.50;;;8.31;95.13
71770;BME280;66386;52.122;5.420;2023-04-07T07:43:43;101767.59;;;8.34;95.31
71770;BME280;66386;52.122;5.420;2023-04-07T07:46:09;101769.28;;;8.35;94.99
71770;BME280;66386;52.122;5.420;2023-04-07T07:48:36;101762.44;;;8.36;94.67
71770;BME280;66386;52.122;5.420;2023-04-07T07:51:03;101762.44;;;8.36;94.57
71770;BME280;66386;52.122;5.420;2023-04-07T07:53:29;101769.25;;;8.37;94.64
71770;BME280;66386;52.122;5.420;2023-04-07T07:55:56;101772.66;;;8.39;94.52
71770;BME280;66386;52.122;5.420;2023-04-07T07:58:22;101767.47;;;8.44;94.55
71770;BME280;66386;52.122;5.420;2023-04-07T08:00:49;101775.91;;;8.53;94.59
71770;BME280;66386;52.122;5.420;2023-04-07T08:03:16;101780.91;;;8.63;94.45
71770;BME280;66386;52.122;5.420;2023-04-07T08:05:43;101783.44;;;8.67;94.18
71770;BME280;66386;52.122;5.420;2023-04-07T08:08:09;101780.78;;;8.73;94.45
71770;BME280;66386;52.122;5.420;2023-04-07T08:10:36;101790.97;;;8.78;93.65
71770;BME280;66386;52.122;5.420;2023-04-07T08:13:02;101791.88;;;8.72;93.49
71770;BME280;66386;52.122;5.420;2023-04-07T08:15:30;101793.53;;;8.78;93.52
71770;BME280;66386;52.122;5.420;2023-04-07T08:17:56;101791.69;;;8.88;93.19
71770;BME280;66386;52.122;5.420;2023-04-07T08:20:23;101791.50;;;8.99;93.01
71770;BME280;66386;52.122;5.420;2023-04-07T08:22:50;101795.59;;;9.11;92.80
71770;BME280;66386;52.122;5.420;2023-04-07T08:25:17;101801.56;;;9.14;92.45
71770;BME280;66386;52.122;5.420;2023-04-07T08:27:44;101797.31;;;9.12;92.09
71770;BME280;66386;52.122;5.420;2023-04-07T08:30:11;101801.56;;;9.11;91.52
71770;BME280;66386;52.122;5.420;2023-04-07T08:32:43;101798.97;;;9.16;91.19
71770;BME280;66386;52.122;5.420;2023-04-07T08:35:10;101804.00;;;9.22;90.68
71770;BME280;66386;52.122;5.420;2023-04-07T08:37:38;101803.06;;;9.26;90.12
71770;BME280;66386;52.122;5.420;2023-04-07T08:40:05;101802.16;;;9.30;89.85
71770;BME280;66386;52.122;5.420;2023-04-07T08:42:33;101808.81;;;9.42;89.36
71770;BME280;66386;52.122;5.420;2023-04-07T08:45:04;101804.34;;;9.52;88.72
71770;BME280;66386;52.122;5.420;2023-04-07T08:47:32;101808.47;;;9.60;88.69
71770;BME280;66386;52.122;5.420;2023-04-07T08:50:08;101806.03;;;9.54;87.27
71770;BME280;66386;52.122;5.420;2023-04-07T08:52:42;101812.03;;;9.53;86.95
71770;BME280;66386;52.122;5.420;2023-04-07T08:55:09;101814.59;;;9.53;86.96
71770;BME280;66386;52.122;5.420;2023-04-07T08:57:37;101817.91;;;9.60;86.85
71770;BME280;66386;52.122;5.420;2023-04-07T09:00:04;101817.00;;;9.63;86.32
71770;BME280;66386;52.122;5.420;2023-04-07T09:02:33;101822.94;;;9.66;86.32
71770;BME280;66386;52.122;5.420;2023-04-07T09:05:02;101832.13;;;9.78;86.21
71770;BME280;66386;52.122;5.420;2023-04-07T09:07:34;101834.56;;;9.87;86.38
71770;BME280;66386;52.122;5.420;2023-04-07T09:10:01;101834.47;;;9.92;85.81
71770;BME280;66386;52.122;5.420;2023-04-07T09:12:28;101834.47;;;9.92;84.88
71770;BME280;66386;52.122;5.420;2023-04-07T09:14:55;101832.94;;;9.82;84.46
71770;BME280;66386;52.122;5.420;2023-04-07T09:17:24;101835.59;;;9.77;83.79
71770;BME280;66386;52.122;5.420;2023-04-07T09:19:52;101835.34;;;9.91;84.09
71770;BME280;66386;52.122;5.420;2023-04-07T09:22:41;101840.38;;;9.95;84.32
71770;BME280;66386;52.122;5.420;2023-04-07T09:25:10;101839.38;;;10.04;84.23
71770;BME280;66386;52.122;5.420;2023-04-07T09:27:36;101835.09;;;10.05;84.03
71770;BME280;66386;52.122;5.420;2023-04-07T09:30:13;101841.94;;;10.04;84.52
71770;BME280;66386;52.122;5.420;2023-04-07T09:32:41;101845.50;;;9.97;84.36
71770;BME280;66386;52.122;5.420;2023-04-07T09:35:08;101840.31;;;9.99;84.48
71770;BME280;66386;52.122;5.420;2023-04-07T09:37:35;101848.19;;;9.91;84.25
71770;BME280;66386;52.122;5.420;2023-04-07T09:40:01;101839.69;;;9.87;84.41
71770;BME280;66386;52.122;5.420;2023-04-07T09:42:28;101848.34;;;9.82;84.26
71770;BME280;66386;52.122;5.420;2023-04-07T09:44:59;101845.91;;;9.75;83.24
71770;BME280;66386;52.122;5.420;2023-04-07T09:47:27;101845.09;;;9.72;84.00
71770;BME280;66386;52.122;5.420;2023-04-07T09:49:56;101845.78;;;9.82;84.17
71770;BME280;66386;52.122;5.420;2023-04-07T09:52:48;101849.00;;;9.91;83.57
71770;BME280;66386;52.122;5.420;2023-04-07T09:55:15;101849.00;;;9.93;83.39
71770;BME280;66386;52.122;5.420;2023-04-07T09:57:43;101848.22;;;9.89;83.00
71770;BME280;66386;52.122;5.420;2023-04-07T10:00:11;101849.78;;;9.96;83.47
71770;BME280;66386;52.122;5.420;2023-04-07T10:02:37;101852.22;;;10.04;83.30
71770;BME280;66386;52.122;5.420;2023-04-07T10:05:04;101849.63;;;10.04;82.94
71770;BME280;66386;52.122;5.420;2023-04-07T10:07:31;101859.81;;;10.10;82.93
71770;BME280;66386;52.122;5.420;2023-04-07T10:09:57;101855.66;;;10.05;82.48
71770;BME280;66386;52.122;5.420;2023-04-07T10:12:24;101856.53;;;10.02;82.90
71770;BME280;66386;52.122;5.420;2023-04-07T10:14:53;101859.13;;;10.01;82.10
71770;BME280;66386;52.122;5.420;2023-04-07T10:17:20;101859.94;;;10.03;82.83
71770;BME280;66386;52.122;5.420;2023-04-07T10:19:48;101860.03;;;9.98;82.91
71770;BME280;66386;52.122;5.420;2023-04-07T10:22:16;101857.56;;;9.93;82.63
71770;BME280;66386;52.122;5.420;2023-04-07T10:24:55;101867.13;;;9.84;83.08
71770;BME280;66386;52.122;5.420;2023-04-07T10:27:34;101867.25;;;9.77;82.97
71770;BME280;66386;52.122;5.420;2023-04-07T10:30:04;101865.47;;;9.79;82.49
71770;BME280;66386;52.122;5.420;2023-04-07T10:32:45;101877.50;;;9.77;82.31
71770;BME280;66386;52.122;5.420;2023-04-07T10:35:12;101880.19;;;9.71;82.44
71770;BME280;66386;52.122;5.420;2023-04-07T10:37:38;101870.66;;;9.78;82.78
71770;BME280;66386;52.122;5.420;2023-04-07T10:42:44;101880.84;;;9.83;83.15
71770;BME280;66386;52.122;5.420;2023-04-07T10:45:13;101886.72;;;9.89;82.92
71770;BME280;66386;52.122;5.420;2023-04-07T10:50:24;101893.50;;;9.93;81.89
71770;BME280;66386;52.122;5.420;2023-04-07T10:53:08;101887.66;;;9.84;81.47
71770;BME280;66386;52.122;5.420;2023-04-07T10:58:13;101886.88;;;9.80;81.21
71770;BME280;66386;52.122;5.420;2023-04-07T11:00:41;101890.41;;;9.74;81.77
71770;BME280;66386;52.122;5.420;2023-04-07T11:03:12;101900.66;;;9.76;82.08
71770;BME280;66386;52.122;5.420;2023-04-07T11:05:40;101891.19;;;9.78;81.75
71770;BME280;66386;52.122;5.420;2023-04-07T11:08:07;101893.81;;;9.75;81.67
71770;BME280;66386;52.122;5.420;2023-04-07T11:10:34;101905.00;;;9.71;82.26
71770;BME280;66386;52.122;5.420;2023-04-07T11:13:06;101905.88;;;9.70;82.63
71770;BME280;66386;52.122;5.420;2023-04-07T11:15:34;101900.03;;;9.60;82.38
71770;BME280;66386;52.122;5.420;2023-04-07T11:18:25;101908.66;;;9.56;82.24
71770;BME280;66386;52.122;5.420;2023-04-07T11:20:53;101904.47;;;9.49;82.50
71770;BME280;66386;52.122;5.420;2023-04-07T11:23:21;101903.72;;;9.43;82.70
71770;BME280;66386;52.122;5.420;2023-04-07T11:25:59;101911.41;;;9.45;82.43
71770;BME280;66386;52.122;5.420;2023-04-07T11:28:29;101918.22;;;9.48;82.64
71770;BME280;66386;52.122;5.420;2023-04-07T11:30:56;101911.31;;;9.50;82.91
71770;BME280;66386;52.122;5.420;2023-04-07T11:33:30;101914.66;;;9.56;82.82
71770;BME280;66386;52.122;5.420;2023-04-07T11:35:59;101913.66;;;9.65;82.83
71770;BME280;66386;52.122;5.420;2023-04-07T11:38:29;101915.31;;;9.68;82.55
71770;BME280;66386;52.122;5.420;2023-04-07T11:41:10;101920.44;;;9.68;82.64
71770;BME280;66386;52.122;5.420;2023-04-07T11:43:37;101922.19;;;9.67;82.47
71770;BME280;66386;52.122;5.420;2023-04-07T11:46:09;101920.38;;;9.72;81.96
71770;BME280;66386;52.122;5.420;2023-04-07T11:48:37;101925.47;;;9.77;82.07
71770;BME280;66386;52.122;5.420;2023-04-07T11:51:05;101915.91;;;9.84;81.46
71770;BME280;66386;52.122;5.420;2023-04-07T11:53:36;101916.03;;;9.77;81.09
71770;BME280;66386;52.122;5.420;2023-04-07T11:56:08;101916.84;;;9.79;80.66
71770;BME280;66386;52.122;5.420;2023-04-07T11:58:35;101923.81;;;9.73;80.63
71770;BME280;66386;52.122;5.420;2023-04-07T12:01:03;101923.81;;;9.71;81.12
71770;BME280;66386;52.122;5.420;2023-04-07T12:03:33;101928.91;;;9.74;81.12
71770;BME280;66386;52.122;5.420;2023-04-07T12:06:01;101932.41;;;9.69;80.92
71770;BME280;66386;52.122;5.420;2023-04-07T12:08:42;101930.63;;;9.72;81.02
71770;BME280;66386;52.122;5.420;2023-04-07T12:11:09;101939.16;;;9.76;80.87
71770;BME280;66386;52.122;5.420;2023-04-07T12:13:36;101938.25;;;9.78;80.92
71770;BME280;66386;52.122;5.420;2023-04-07T12:16:03;101940.75;;;9.83;80.52
71770;BME280;66386;52.122;5.420;2023-04-07T12:18:30;101944.09;;;9.87;80.28
71770;BME280;66386;52.122;5.420;2023-04-07T12:20:56;101945.88;;;9.85;80.37
71770;BME280;66386;52.122;5.420;2023-04-07T12:23:24;101951.72;;;9.91;80.64
71770;BME280;66386;52.122;5.420;2023-04-07T12:25:50;101950.03;;;9.92;80.49
71770;BME280;66386;52.122;5.420;2023-04-07T12:28:17;101950.84;;;9.94;80.19
71770;BME280;66386;52.122;5.420;2023-04-07T12:30:44;101957.66;;;9.96;80.23
71770;BME280;66386;52.122;5.420;2023-04-07T12:33:10;101959.28;;;10.02;80.29
71770;BME280;66386;52.122;5.420;2023-04-07T12:35:37;101949.78;;;10.06;79.70
71770;BME280;66386;52.122;5.420;2023-04-07T12:38:04;101950.66;;;10.06;79.98
71770;BME280;66386;52.122;5.420;2023-04-07T12:40:30;101957.47;;;10.07;79.64
71770;BME280;66386;52.122;5.420;2023-04-07T12:42:57;101955.75;;;10.08;79.68
71770;BME280;66386;52.122;5.420;2023-04-07T12:45:24;101957.44;;;10.09;79.64
71770;BME280;66386;52.122;5.420;2023-04-07T12:47:50;101958.28;;;10.11;79.11
71770;BME280;66386;52.122;5.420;2023-04-07T12:50:17;101961.63;;;10.14;78.99
71770;BME280;66386;52.122;5.420;2023-04-07T12:52:43;101958.25;;;10.12;78.72
71770;BME280;66386;52.122;5.420;2023-04-07T12:55:10;101964.97;;;10.20;78.48
71770;BME280;66386;52.122;5.420;2023-04-07T12:57:36;101968.38;;;10.20;78.87
71770;BME280;66386;52.122;5.420;2023-04-07T13:00:03;101972.63;;;10.23;78.22
71770;BME280;66386;52.122;5.420;2023-04-07T13:02:30;101972.69;;;10.20;78.37
71770;BME280;66386;52.122;5.420;2023-04-07T13:04:58;101984.66;;;10.21;78.39
71770;BME280;66386;52.122;5.420;2023-04-07T13:07:24;101977.09;;;10.11;78.61
71770;BME280;66386;52.122;5.420;2023-04-07T13:09:50;101977.03;;;10.14;78.57
71770;BME280;66386;52.122;5.420;2023-04-07T13:12:17;101976.97;;;10.21;78.36
71770;BME280;66386;52.122;5.420;2023-04-07T13:14:43;101976.94;;;10.22;78.26
71770;BME280;66386;52.122;5.420;2023-04-07T13:17:22;101983.78;;;10.22;78.39